createdAt,value
2018-11-20T00:02:43.833Z,64.43
2018-11-20T00:05:21.297Z,64.51
2018-11-20T00:08:09.384Z,64.53
2018-11-20T00:10:57.512Z,64.56
2018-11-20T00:13:45.641Z,64.58
2018-11-20T00:16:33.773Z,64.51
2018-11-20T00:19:21.953Z,64.32
2018-11-20T00:22:04.229Z,64.43
2018-11-20T00:24:52.389Z,64.52
2018-11-20T00:27:40.517Z,64.53
2018-11-20T00:30:28.737Z,64.52
2018-11-20T00:33:16.850Z,64.47
2018-11-20T00:36:05.011Z,64.52
2018-11-20T00:38:53.148Z,64.60
2018-11-20T00:41:41.295Z,64.63
2018-11-20T00:44:29.428Z,64.72
2018-11-20T00:47:17.577Z,64.65
2018-11-20T00:50:05.708Z,64.60
2018-11-20T00:52:53.862Z,64.72
2018-11-20T00:56:20.006Z,64.82
2018-11-20T00:59:08.155Z,64.69
2018-11-20T01:01:56.263Z,64.79
2018-11-20T01:04:44.406Z,64.74
2018-11-20T01:07:29.689Z,64.65
2018-11-20T01:10:08.409Z,64.74
2018-11-20T01:12:56.524Z,64.82
2018-11-20T01:15:44.676Z,64.95
2018-11-20T01:18:32.772Z,64.92
2018-11-20T01:21:20.968Z,65.01
2018-11-20T01:24:01.210Z,65.13
2018-11-20T01:26:49.368Z,65.11
2018-11-20T01:29:37.596Z,65.07
2018-11-20T01:32:19.010Z,65.13
2018-11-20T01:35:07.140Z,65.14
2018-11-20T01:37:55.288Z,65.26
2018-11-20T01:40:43.404Z,65.22
2018-11-20T01:43:31.582Z,65.18
2018-11-20T01:46:19.700Z,65.19
2018-11-20T01:49:07.846Z,65.20
2018-11-20T01:51:56.012Z,65.33
2018-11-20T01:54:44.177Z,65.40
2018-11-20T01:57:32.285Z,65.28
2018-11-20T02:00:20.456Z,65.21
2018-11-20T02:03:08.617Z,65.15
2018-11-20T02:05:56.809Z,65.15
2018-11-20T02:08:44.946Z,65.17
2018-11-20T02:11:33.061Z,65.08
2018-11-20T02:14:27.068Z,65.19
2018-11-20T02:17:35.413Z,65.00
2018-11-20T02:20:23.710Z,64.99
2018-11-20T02:23:11.882Z,64.91
2018-11-20T02:26:00.001Z,64.64
2018-11-20T02:28:48.200Z,64.35
2018-11-20T02:31:36.308Z,64.26
2018-11-20T02:34:18.972Z,64.14
2018-11-20T02:37:07.116Z,63.95
2018-11-20T02:39:55.269Z,64.00
2018-11-20T02:42:43.370Z,64.15
2018-11-20T02:45:31.515Z,64.16
2018-11-20T02:48:20.289Z,63.61
2018-11-20T02:51:07.840Z,63.58
2018-11-20T02:54:14.916Z,63.49
2018-11-20T02:57:03.064Z,63.33
2018-11-20T02:59:51.210Z,63.01
2018-11-20T03:02:39.355Z,63.24
2018-11-20T03:05:27.496Z,63.23
2018-11-20T03:08:15.640Z,63.35
2018-11-20T03:11:03.800Z,63.29
2018-11-20T03:13:51.922Z,63.05
2018-11-20T03:16:40.085Z,62.95
2018-11-20T03:19:28.240Z,63.16
2018-11-20T03:22:16.382Z,62.58
2018-11-20T03:25:04.550Z,62.55
2018-11-20T03:27:52.704Z,62.33
2018-11-20T03:31:18.852Z,61.95
2018-11-20T03:34:08.894Z,62.01
2018-11-20T03:36:57.027Z,62.02
2018-11-20T03:39:45.140Z,61.98
2018-11-20T03:42:29.866Z,62.15
2018-11-20T03:45:17.976Z,61.84
2018-11-20T03:48:06.200Z,61.79
2018-11-20T03:50:54.247Z,61.56
2018-11-20T03:53:42.377Z,61.57
2018-11-20T03:56:30.495Z,61.39
2018-11-20T03:59:18.659Z,61.48
2018-11-20T04:02:06.777Z,61.63
2018-11-20T04:04:54.915Z,61.54
2018-11-20T04:07:35.979Z,61.64
2018-11-20T04:10:24.309Z,61.51
2018-11-20T04:13:00.066Z,61.42
2018-11-20T04:15:38.419Z,61.35
2018-11-20T04:18:26.537Z,61.27
2018-11-20T04:21:14.680Z,60.90
2018-11-20T04:24:02.806Z,60.45
2018-11-20T04:26:51.280Z,60.13
2018-11-20T04:29:39.317Z,60.00
2018-11-20T04:32:27.478Z,59.93
2018-11-20T04:35:17.390Z,59.84
2018-11-20T04:38:05.559Z,59.86
2018-11-20T04:40:53.703Z,59.95
2018-11-20T04:43:41.839Z,60.02
2018-11-20T04:46:22.739Z,59.97
2018-11-20T04:49:10.941Z,59.54
2018-11-20T04:51:59.066Z,59.70
2018-11-20T04:54:37.158Z,59.39
2018-11-20T04:57:25.271Z,59.22
2018-11-20T05:00:13.417Z,58.90
2018-11-20T05:03:01.564Z,58.64
2018-11-20T05:05:49.762Z,58.41
2018-11-20T05:08:37.891Z,58.42
2018-11-20T05:11:26.169Z,58.20
2018-11-20T05:14:06.040Z,58.15
2018-11-20T05:16:54.212Z,58.23
2018-11-20T05:19:41.332Z,58.26
2018-11-20T05:22:32.187Z,58.53
2018-11-20T05:25:18.813Z,58.60
2018-11-20T05:28:00.486Z,58.79
2018-11-20T05:33:27.229Z,58.82
2018-11-20T05:36:10.715Z,58.87
2018-11-20T05:38:55.433Z,59.17
2018-11-20T05:41:42.100Z,59.23
2018-11-20T05:44:28.820Z,59.30
2018-11-20T05:47:19.811Z,59.30
2018-11-20T05:50:17.100Z,59.23
2018-11-20T05:52:56.397Z,59.18
2018-11-20T05:55:44.374Z,59.29
2018-11-20T05:58:29.299Z,59.85
2018-11-20T06:01:26.470Z,59.34
2018-11-20T06:04:17.552Z,59.45
2018-11-20T06:07:12.408Z,59.82
2018-11-20T06:10:06.551Z,59.91
2018-11-20T06:13:29.406Z,60.12
2018-11-20T06:16:13.831Z,60.23
2018-11-20T06:19:00.701Z,60.29
2018-11-20T06:21:53.723Z,60.32
2018-11-20T06:24:40.756Z,60.25
2018-11-20T06:27:43.656Z,60.33
2018-11-20T06:30:35.008Z,60.17
2018-11-20T06:33:21.564Z,60.19
2018-11-20T06:35:58.353Z,60.36
2018-11-20T06:38:52.125Z,60.38
2018-11-20T06:41:38.807Z,60.43
2018-11-20T06:44:25.576Z,60.53
2018-11-20T06:47:19.661Z,60.79
2018-11-20T06:50:07.760Z,60.97
2018-11-20T06:53:01.913Z,61.29
2018-11-20T06:56:08.288Z,61.01
2018-11-20T06:58:55.132Z,60.88
2018-11-20T07:01:41.881Z,60.60
2018-11-20T07:04:35.655Z,60.47
2018-11-20T07:07:22.351Z,60.46
2018-11-20T07:10:09.021Z,60.19
2018-11-20T07:12:55.641Z,60.21
2018-11-20T07:15:49.630Z,60.53
2018-11-20T07:18:36.029Z,60.41
2018-11-20T07:21:24.182Z,60.42
2018-11-20T07:25:05.369Z,60.56
2018-11-20T07:27:56.146Z,60.74
2018-11-20T07:30:43.240Z,60.95
2018-11-20T07:33:29.914Z,61.07
2018-11-20T07:36:17.159Z,61.29
2018-11-20T07:38:55.130Z,61.60
2018-11-20T07:41:41.999Z,61.83
2018-11-20T07:44:29.029Z,61.89
2018-11-20T07:47:17.994Z,61.76
2018-11-20T07:50:18.762Z,61.80
2018-11-20T07:53:05.982Z,61.64
2018-11-20T07:55:53.005Z,61.60
2018-11-20T07:58:46.943Z,61.79
2018-11-20T08:01:47.201Z,61.88
2018-11-20T08:04:34.066Z,61.80
2018-11-20T08:07:12.453Z,61.89
2018-11-20T08:10:03.292Z,61.95
2018-11-20T08:12:57.693Z,61.99
2018-11-20T08:15:45.009Z,62.40
2018-11-20T08:22:00.710Z,62.42
2018-11-20T08:24:47.381Z,62.49
2018-11-20T08:27:34.160Z,62.52
2018-11-20T08:30:21.030Z,62.50
2018-11-20T08:33:17.027Z,62.72
2018-11-20T08:36:13.934Z,62.83
2018-11-20T08:39:08.152Z,62.84
2018-11-20T08:42:14.548Z,62.76
2018-11-20T08:45:05.504Z,62.75
2018-11-20T08:48:11.908Z,63.00
2018-11-20T08:50:58.605Z,63.01
2018-11-20T08:53:42.474Z,63.06
2018-11-20T08:56:29.366Z,63.02
2018-11-20T08:59:03.846Z,63.15
2018-11-20T09:02:07.037Z,63.30
2018-11-20T09:04:51.857Z,63.14
2018-11-20T09:07:39.774Z,63.21
2018-11-20T09:10:26.747Z,63.07
2018-11-20T09:13:11.141Z,63.35
2018-11-20T09:16:11.218Z,63.29
2018-11-20T09:19:02.176Z,63.39
2018-11-20T09:21:49.121Z,63.59
2018-11-20T09:24:37.342Z,63.41
2018-11-20T09:27:24.328Z,63.44
2018-11-20T09:30:30.832Z,63.53
2018-11-20T09:33:34.415Z,63.56
2018-11-20T09:36:28.592Z,63.57
2018-11-20T09:39:05.980Z,63.58
2018-11-20T09:42:03.429Z,63.62
2018-11-20T09:45:04.335Z,63.65
2018-11-20T09:48:07.479Z,63.61
2018-11-20T09:50:54.385Z,63.54
2018-11-20T09:53:51.723Z,63.53
2018-11-20T09:56:44.700Z,63.47
2018-11-20T09:59:31.571Z,63.55
2018-11-20T10:02:23.667Z,63.41
2018-11-20T10:05:20.560Z,63.37
2018-11-20T10:08:07.349Z,63.22
2018-11-20T10:10:54.148Z,63.33
2018-11-20T10:13:39.087Z,63.31
2018-11-20T10:16:39.420Z,63.21
2018-11-20T10:19:20.511Z,63.30
2018-11-20T10:22:08.728Z,63.04
2018-11-20T10:25:00.058Z,63.08
2018-11-20T10:27:47.112Z,62.94
2018-11-20T10:30:26.617Z,62.86
2018-11-20T10:33:13.509Z,63.42
2018-11-20T10:36:00.112Z,63.04
2018-11-20T10:38:46.734Z,62.86
2018-11-20T10:41:34.546Z,62.91
2018-11-20T10:44:25.572Z,62.77
2018-11-20T10:47:22.654Z,62.80
2018-11-20T10:50:09.829Z,62.76
2018-11-20T10:52:58.004Z,62.72
2018-11-20T10:55:33.498Z,62.67
2018-11-20T10:58:20.116Z,62.75
2018-11-20T11:01:06.871Z,63.01
2018-11-20T11:03:53.674Z,62.95
2018-11-20T11:06:40.327Z,64.66
2018-11-20T11:09:42.831Z,62.56
2018-11-20T11:12:28.373Z,62.38
2018-11-20T11:15:33.967Z,62.34
2018-11-20T11:18:20.670Z,62.36
2018-11-20T11:21:16.744Z,62.05
2018-11-20T11:23:56.144Z,62.14
2018-11-20T11:26:43.131Z,62.24
2018-11-20T11:29:34.046Z,62.36
2018-11-20T11:32:29.745Z,61.97
2018-11-20T11:35:30.109Z,61.98
2018-11-20T11:38:10.199Z,62.36
2018-11-20T11:40:58.363Z,62.19
2018-11-20T11:43:46.496Z,61.74
2018-11-20T11:46:34.636Z,61.92
2018-11-20T11:49:22.805Z,61.96
2018-11-20T11:52:10.945Z,62.25
2018-11-20T11:54:59.076Z,61.75
2018-11-20T11:57:47.228Z,61.39
2018-11-20T12:00:35.342Z,61.54
2018-11-20T12:03:23.493Z,61.94
2018-11-20T12:06:11.618Z,62.04
2018-11-20T12:08:59.786Z,62.25
2018-11-20T12:11:47.898Z,62.36
2018-11-20T12:14:36.075Z,62.52
2018-11-20T12:17:24.228Z,62.58
2018-11-20T12:20:12.403Z,62.73
2018-11-20T12:23:00.561Z,62.71
2018-11-20T12:25:48.730Z,62.48
2018-11-20T12:28:36.899Z,62.55
2018-11-20T12:34:21.739Z,62.93
2018-11-20T12:37:09.875Z,62.99
2018-11-20T12:39:58.379Z,63.33
2018-11-20T12:42:35.054Z,63.49
2018-11-20T12:45:23.207Z,63.67
2018-11-20T12:48:11.439Z,63.78
2018-11-20T12:50:59.591Z,63.79
2018-11-20T12:53:47.717Z,63.88
2018-11-20T12:56:35.915Z,63.70
2018-11-20T12:59:24.042Z,63.60
2018-11-20T13:02:19.577Z,63.86
2018-11-20T13:05:04.918Z,63.94
2018-11-20T13:07:53.099Z,63.74
2018-11-20T13:10:41.246Z,63.65
2018-11-20T13:13:29.401Z,63.74
2018-11-20T13:16:17.616Z,63.61
2018-11-20T13:19:05.800Z,63.40
2018-11-20T13:21:53.898Z,63.63
2018-11-20T13:24:37.405Z,63.39
2018-11-20T13:27:25.531Z,63.52
2018-11-20T13:30:13.689Z,63.76
2018-11-20T13:33:01.827Z,64.62
2018-11-20T13:35:49.975Z,65.40
2018-11-20T13:38:38.108Z,65.76
2018-11-20T13:42:04.227Z,65.85
2018-11-20T13:45:03.439Z,66.00
2018-11-20T13:47:52.358Z,65.84
2018-11-20T13:50:40.195Z,65.63
2018-11-20T13:53:28.371Z,65.20
2018-11-20T13:56:16.513Z,65.05
2018-11-20T13:58:58.056Z,64.89
2018-11-20T14:02:03.954Z,64.71
2018-11-20T14:04:52.105Z,64.11
2018-11-20T14:10:35.967Z,64.30
2018-11-20T14:13:24.168Z,64.22
2018-11-20T14:16:12.365Z,64.09
2018-11-20T14:19:00.521Z,64.18
2018-11-20T14:21:37.214Z,63.82
2018-11-20T14:24:26.108Z,63.73
2018-11-20T14:27:14.297Z,63.50
2018-11-20T14:30:02.444Z,63.46
2018-11-20T14:32:50.625Z,62.78
2018-11-20T14:38:34.307Z,62.60
2018-11-20T14:41:22.534Z,62.69
2018-11-20T14:44:10.702Z,62.95
2018-11-20T14:46:58.821Z,63.14
2018-11-20T14:49:42.343Z,63.27
2018-11-20T14:52:30.473Z,63.16
2018-11-20T14:55:18.662Z,63.24
2018-11-20T14:58:06.812Z,63.32
2018-11-20T15:00:55.044Z,63.13
2018-11-20T15:03:43.172Z,63.40
2018-11-20T15:06:24.136Z,63.32
2018-11-20T15:09:12.277Z,63.34
2018-11-20T15:12:00.432Z,63.61
2018-11-20T15:14:48.783Z,63.65
2018-11-20T15:17:36.881Z,63.54
2018-11-20T15:20:26.691Z,63.76
2018-11-20T15:23:04.256Z,64.53
2018-11-20T15:25:52.444Z,63.55
2018-11-20T15:28:39.178Z,63.54
2018-11-20T15:31:27.348Z,63.60
2018-11-20T15:34:25.977Z,63.67
2018-11-20T15:37:12.429Z,63.81
2018-11-20T15:39:59.111Z,63.87
2018-11-20T15:42:48.087Z,64.00
2018-11-20T15:45:48.186Z,63.76
2018-11-20T15:48:35.034Z,63.98
2018-11-20T15:51:21.680Z,64.12
2018-11-20T15:54:05.680Z,63.99
2018-11-20T15:57:28.862Z,64.13
2018-11-20T16:00:22.792Z,64.00
2018-11-20T16:03:05.059Z,64.04
2018-11-20T16:05:54.297Z,63.95
2018-11-20T16:08:57.762Z,63.98
2018-11-20T16:12:00.822Z,63.83
2018-11-20T16:14:41.411Z,63.98
2018-11-20T16:17:38.600Z,64.09
2018-11-20T16:20:21.992Z,64.12
2018-11-20T16:23:00.985Z,64.02
2018-11-20T16:25:47.701Z,64.18
2018-11-20T16:28:35.894Z,64.66
2018-11-20T16:31:14.793Z,63.80
2018-11-20T16:34:11.625Z,64.08
2018-11-20T16:36:58.287Z,64.16
2018-11-20T16:39:45.163Z,64.13
2018-11-20T16:42:32.107Z,64.48
2018-11-20T16:45:29.142Z,63.30
2018-11-20T16:48:17.952Z,62.77
2018-11-20T16:51:21.330Z,62.80
2018-11-20T16:54:14.356Z,62.92
2018-11-20T16:57:02.531Z,62.95
2018-11-20T17:00:06.022Z,62.94
2018-11-20T17:02:43.249Z,62.86
2018-11-20T17:06:06.494Z,62.90
2018-11-20T17:08:53.556Z,62.75
2018-11-20T17:11:47.614Z,63.01
2018-11-20T17:14:24.574Z,63.07
2018-11-20T17:17:11.479Z,63.16
2018-11-20T17:20:02.170Z,63.37
2018-11-20T17:22:52.270Z,63.36
2018-11-20T17:25:58.624Z,63.57
2018-11-20T17:29:07.917Z,63.38
2018-11-20T17:31:56.062Z,63.40
2018-11-20T17:34:44.251Z,63.41
2018-11-20T17:37:35.122Z,63.30
2018-11-20T17:40:33.356Z,63.03
2018-11-20T17:43:16.337Z,62.89
2018-11-20T17:46:17.051Z,63.09
2018-11-20T17:49:04.349Z,62.89
2018-11-20T17:55:23.899Z,63.04
2018-11-20T17:58:17.942Z,63.11
2018-11-20T18:01:04.588Z,63.10
2018-11-20T18:04:07.982Z,63.49
2018-11-20T18:06:55.462Z,62.99
2018-11-20T18:09:58.935Z,63.08
2018-11-20T18:12:42.083Z,63.04
2018-11-20T18:15:43.167Z,63.29
2018-11-20T18:18:31.166Z,63.28
2018-11-20T18:21:15.820Z,63.33
2018-11-20T18:24:15.954Z,63.18
2018-11-20T18:27:10.034Z,63.10
2018-11-20T18:29:57.106Z,63.04
2018-11-20T18:32:54.406Z,62.96
2018-11-20T18:35:41.181Z,62.83
2018-11-20T18:38:47.820Z,62.93
2018-11-20T18:41:50.928Z,62.94
2018-11-20T18:44:39.098Z,63.37
2018-11-20T18:47:39.078Z,63.07
2018-11-20T18:50:27.425Z,63.27
2018-11-20T18:53:24.474Z,62.99
2018-11-20T18:56:11.443Z,62.77
2018-11-20T18:59:00.045Z,62.87
2018-11-20T19:01:42.542Z,62.78
2018-11-20T19:07:59.435Z,62.34
2018-11-20T19:10:46.321Z,61.89
2018-11-20T19:13:33.129Z,61.69
2018-11-20T19:19:26.824Z,61.87
2018-11-20T19:22:33.190Z,61.75
2018-11-20T19:25:33.553Z,61.16
2018-11-20T19:28:20.489Z,61.24
2018-11-20T19:31:14.409Z,61.11
2018-11-20T19:34:01.123Z,60.83
2018-11-20T19:36:58.457Z,60.81
2018-11-20T19:39:47.723Z,60.92
2018-11-20T19:42:36.003Z,60.93
2018-11-20T19:46:03.134Z,60.87
2018-11-20T19:48:50.279Z,60.85
2018-11-20T19:55:22.453Z,60.78
2018-11-20T19:58:18.443Z,60.72
2018-11-20T20:03:47.148Z,60.98
2018-11-20T20:06:38.206Z,61.05
2018-11-20T20:09:28.503Z,60.92
2018-11-20T20:12:22.764Z,60.84
2018-11-20T20:15:09.061Z,61.00
2018-11-20T20:17:57.361Z,60.90
2018-11-20T20:20:40.141Z,60.82
2018-11-20T20:23:24.207Z,60.90
2018-11-20T20:26:24.320Z,60.98
2018-11-20T20:29:15.473Z,60.58
2018-11-20T20:35:06.739Z,60.60
2018-11-20T20:38:01.117Z,60.88
2018-11-20T20:40:47.982Z,60.82
2018-11-20T20:43:34.913Z,60.77
2018-11-20T20:46:41.343Z,60.85
2018-11-20T20:49:32.061Z,60.90
2018-11-20T20:52:26.178Z,60.99
2018-11-20T20:55:32.779Z,61.04
2018-11-20T20:58:11.513Z,60.99
2018-11-20T21:01:08.623Z,61.04
2018-11-20T21:04:02.506Z,60.92
2018-11-20T21:06:50.893Z,60.90
2018-11-20T21:09:41.761Z,61.03
2018-11-20T21:12:33.038Z,60.95
2018-11-20T21:15:39.415Z,61.00
2018-11-20T21:18:27.713Z,61.08
2018-11-20T21:21:21.876Z,61.17
2018-11-20T21:24:10.083Z,61.22
2018-11-20T21:26:38.631Z,61.42
2018-11-20T21:29:26.829Z,61.43
2018-11-20T21:32:15.045Z,61.52
2018-11-20T21:35:03.210Z,61.58
2018-11-20T21:37:51.463Z,61.79
2018-11-20T21:40:39.626Z,61.77
2018-11-20T21:43:27.837Z,61.88
2018-11-20T21:46:16.021Z,61.91
2018-11-20T21:49:04.233Z,61.81
2018-11-20T21:51:52.425Z,61.92
2018-11-20T21:54:40.667Z,61.87
2018-11-20T21:57:28.861Z,61.73
2018-11-20T22:00:48.380Z,62.00
2018-11-20T22:04:14.082Z,61.90
2018-11-20T22:07:10.854Z,62.06
2018-11-20T22:10:17.315Z,62.19
2018-11-20T22:13:04.025Z,62.05
2018-11-20T22:15:50.657Z,62.21
2018-11-20T22:18:37.807Z,62.21
2018-11-20T22:21:29.023Z,62.19
2018-11-20T22:24:15.647Z,62.40
2018-11-20T22:27:12.363Z,62.25
2018-11-20T22:30:06.619Z,61.81
2018-11-20T22:32:53.233Z,61.90
2018-11-20T22:35:50.392Z,62.21
2018-11-20T22:38:24.835Z,62.05
2018-11-20T22:41:21.916Z,62.29
2018-11-20T22:44:28.266Z,62.19
2018-11-20T22:47:09.590Z,62.14
2018-11-20T22:49:47.956Z,62.13
2018-11-20T22:52:41.563Z,62.14
2018-11-20T22:55:33.354Z,62.31
2018-11-20T22:58:20.318Z,62.14
2018-11-20T23:01:07.297Z,62.18
2018-11-20T23:03:53.886Z,62.15
2018-11-20T23:06:48.934Z,62.13
2018-11-20T23:09:18.447Z,62.08
2018-11-20T23:11:47.921Z,62.28
2018-11-20T23:14:17.430Z,61.97
2018-11-20T23:16:47.023Z,62.04
2018-11-20T23:19:16.504Z,61.99
2018-11-20T23:21:45.967Z,62.15
2018-11-20T23:24:16.593Z,62.25
2018-11-20T23:26:46.331Z,62.02
2018-11-20T23:29:15.777Z,62.40
2018-11-20T23:31:45.252Z,62.48
2018-11-20T23:34:14.714Z,62.37
2018-11-20T23:36:44.173Z,62.49
2018-11-20T23:39:13.644Z,62.48
2018-11-20T23:41:43.102Z,62.69
2018-11-20T23:44:12.578Z,62.94
2018-11-20T23:46:42.035Z,62.84
2018-11-20T23:49:15.231Z,62.95
2018-11-20T23:51:41.014Z,63.03
2018-11-20T23:54:10.486Z,63.00
2018-11-20T23:56:39.989Z,63.06
2018-11-20T23:59:09.473Z,63.09
